sensor_id;sensor_type;location;lat;lon;timestamp;pressure;altitude;pressure_sealevel;temperature;humidity
27334;BME280;14817;57.104;-2.094;2024-03-02T00:01:07;98077.44;;;4.25;100.00
27334;BME280;14817;57.104;-2.094;2024-03-02T00:03:42;98073.44;;;4.29;100.00
27334;BME280;14817;57.104;-2.094;2024-03-02T00:06:20;98073.88;;;4.41;100.00
27334;BME280;14817;57.104;-2.094;2024-03-02T00:08:51;98065.47;;;4.38;100.00
27334;BME280;14817;57.104;-2.094;2024-03-02T00:11:21;98068.13;;;4.38;100.00
27334;BME280;14817;57.104;-2.094;2024-03-02T00:13:48;98055.63;;;4.15;100.00
27334;BME280;14817;57.104;-2.094;2024-03-02T00:16:15;98061.44;;;4.11;100.00
27334;BME280;14817;57.104;-2.094;2024-03-02T00:18:45;98052.34;;;4.05;100.00
27334;BME280;14817;57.104;-2.094;2024-03-02T00:21:12;98057.84;;;4.03;100.00
27334;BME280;14817;57.104;-2.094;2024-03-02T00:23:42;98050.72;;;4.04;100.00
27334;BME280;14817;57.104;-2.094;2024-03-02T00:26:11;98047.72;;;4.07;100.00
27334;BME280;14817;57.104;-2.094;2024-03-02T00:28:39;98056.47;;;4.07;100.00
27334;BME280;14817;57.104;-2.094;2024-03-02T00:31:13;98042.91;;;4.11;100.00
27334;BME280;14817;57.104;-2.094;2024-03-02T00:33:45;98038.38;;;4.19;100.00
27334;BME280;14817;57.104;-2.094;2024-03-02T00:36:18;98049.03;;;4.03;100.00
27334;BME280;14817;57.104;-2.094;2024-03-02T00:38:49;98049.03;;;4.11;100.00
27334;BME280;14817;57.104;-2.094;2024-03-02T00:41:24;98049.38;;;4.08;100.00
27334;BME280;14817;57.104;-2.094;2024-03-02T00:46:24;98058.97;;;4.09;100.00
27334;BME280;14817;57.104;-2.094;2024-03-02T00:48:57;98064.88;;;4.19;100.00
27334;BME280;14817;57.104;-2.094;2024-03-02T00:51:27;98070.19;;;4.19;100.00
27334;BME280;14817;57.104;-2.094;2024-03-02T00:53:57;98070.84;;;4.21;100.00
27334;BME280;14817;57.104;-2.094;2024-03-02T00:56:24;98069.56;;;4.09;100.00
27334;BME280;14817;57.104;-2.094;2024-03-02T00:58:52;98069.16;;;4.20;100.00
27334;BME280;14817;57.104;-2.094;2024-03-02T01:01:22;98062.59;;;4.16;100.00
27334;BME280;14817;57.104;-2.094;2024-03-02T01:03:49;98074.38;;;4.05;100.00
27334;BME280;14817;57.104;-2.094;2024-03-02T01:06:17;98073.34;;;4.15;100.00
27334;BME280;14817;57.104;-2.094;2024-03-02T01:08:44;98078.50;;;4.08;100.00
27334;BME280;14817;57.104;-2.094;2024-03-02T01:11:11;98078.66;;;4.15;100.00
27334;BME280;14817;57.104;-2.094;2024-03-02T01:13:38;98088.13;;;4.01;100.00
27334;BME280;14817;57.104;-2.094;2024-03-02T01:16:05;98083.16;;;4.06;100.00
27334;BME280;14817;57.104;-2.094;2024-03-02T01:18:32;98086.97;;;4.03;100.00
27334;BME280;14817;57.104;-2.094;2024-03-02T01:20:59;98082.97;;;4.07;100.00
27334;BME280;14817;57.104;-2.094;2024-03-02T01:23:26;98096.84;;;4.09;100.00
27334;BME280;14817;57.104;-2.094;2024-03-02T01:25:53;98104.00;;;4.01;100.00
27334;BME280;14817;57.104;-2.094;2024-03-02T01:28:20;98106.16;;;4.05;100.00
27334;BME280;14817;57.104;-2.094;2024-03-02T01:30:48;98108.97;;;4.04;100.00
27334;BME280;14817;57.104;-2.094;2024-03-02T01:33:16;98121.41;;;4.03;100.00
27334;BME280;14817;57.104;-2.094;2024-03-02T01:35:43;98118.41;;;4.06;100.00
27334;BME280;14817;57.104;-2.094;2024-03-02T01:38:10;98125.03;;;4.02;100.00
27334;BME280;14817;57.104;-2.094;2024-03-02T01:40:38;98110.75;;;4.12;100.00
27334;BME280;14817;57.104;-2.094;2024-03-02T01:43:05;98109.28;;;4.09;100.00
27334;BME280;14817;57.104;-2.094;2024-03-02T01:45:34;98106.97;;;4.14;100.00
27334;BME280;14817;57.104;-2.094;2024-03-02T01:48:06;98111.59;;;4.12;100.00
27334;BME280;14817;57.104;-2.094;2024-03-02T01:50:35;98105.00;;;4.08;100.00
27334;BME280;14817;57.104;-2.094;2024-03-02T01:53:02;98107.81;;;4.06;100.00
27334;BME280;14817;57.104;-2.094;2024-03-02T01:55:38;98107.28;;;4.11;100.00
27334;BME280;14817;57.104;-2.094;2024-03-02T01:58:05;98103.97;;;4.09;100.00
27334;BME280;14817;57.104;-2.094;2024-03-02T02:00:33;98099.34;;;4.11;100.00
27334;BME280;14817;57.104;-2.094;2024-03-02T02:03:00;98105.28;;;4.13;100.00
27334;BME280;14817;57.104;-2.094;2024-03-02T02:05:27;98112.06;;;4.16;100.00
27334;BME280;14817;57.104;-2.094;2024-03-02T02:07:57;98113.72;;;4.17;100.00
27334;BME280;14817;57.104;-2.094;2024-03-02T02:10:25;98122.34;;;4.19;100.00
27334;BME280;14817;57.104;-2.094;2024-03-02T02:12:52;98109.41;;;4.16;100.00
27334;BME280;14817;57.104;-2.094;2024-03-02T02:15:26;98105.47;;;4.12;100.00
27334;BME280;14817;57.104;-2.094;2024-03-02T02:17:57;98099.81;;;4.23;100.00
27334;BME280;14817;57.104;-2.094;2024-03-02T02:20:25;98110.94;;;4.18;100.00
27334;BME280;14817;57.104;-2.094;2024-03-02T02:25:26;98112.56;;;4.19;100.00
27334;BME280;14817;57.104;-2.094;2024-03-02T02:27:57;98110.25;;;4.16;100.00
27334;BME280;14817;57.104;-2.094;2024-03-02T02:30:26;98110.06;;;4.18;100.00
27334;BME280;14817;57.104;-2.094;2024-03-02T02:32:54;98114.38;;;4.19;100.00
27334;BME280;14817;57.104;-2.094;2024-03-02T02:35:21;98102.16;;;4.09;100.00
27334;BME280;14817;57.104;-2.094;2024-03-02T02:37:49;98109.66;;;3.89;100.00
27334;BME280;14817;57.104;-2.094;2024-03-02T02:40:17;98116.41;;;4.00;100.00
27334;BME280;14817;57.104;-2.094;2024-03-02T02:42:46;98122.53;;;4.09;100.00
27334;BME280;14817;57.104;-2.094;2024-03-02T02:45:13;98120.53;;;4.11;100.00
27334;BME280;14817;57.104;-2.094;2024-03-02T02:47:42;98123.84;;;4.13;100.00
27334;BME280;14817;57.104;-2.094;2024-03-02T02:50:11;98122.88;;;4.06;100.00
27334;BME280;14817;57.104;-2.094;2024-03-02T02:52:40;98114.94;;;4.06;100.00
27334;BME280;14817;57.104;-2.094;2024-03-02T02:55:09;98117.91;;;3.95;100.00
27334;BME280;14817;57.104;-2.094;2024-03-02T02:57:38;98126.50;;;4.05;100.00
27334;BME280;14817;57.104;-2.094;2024-03-02T03:02:40;98122.19;;;4.12;100.00
27334;BME280;14817;57.104;-2.094;2024-03-02T03:05:09;98126.50;;;4.05;100.00
27334;BME280;14817;57.104;-2.094;2024-03-02T03:07:37;98122.72;;;3.99;100.00
27334;BME280;14817;57.104;-2.094;2024-03-02T03:10:04;98122.22;;;4.04;100.00
27334;BME280;14817;57.104;-2.094;2024-03-02T03:12:34;98124.88;;;4.04;100.00
27334;BME280;14817;57.104;-2.094;2024-03-02T03:15:01;98123.88;;;3.97;100.00
27334;BME280;14817;57.104;-2.094;2024-03-02T03:17:28;98132.00;;;4.03;100.00
27334;BME280;14817;57.104;-2.094;2024-03-02T03:19:55;98125.84;;;4.03;100.00
27334;BME280;14817;57.104;-2.094;2024-03-02T03:22:22;98122.53;;;4.09;100.00
27334;BME280;14817;57.104;-2.094;2024-03-02T03:24:49;98135.31;;;4.05;100.00
27334;BME280;14817;57.104;-2.094;2024-03-02T03:27:16;98138.41;;;4.09;100.00
27334;BME280;14817;57.104;-2.094;2024-03-02T03:29:43;98141.78;;;3.86;100.00
27334;BME280;14817;57.104;-2.094;2024-03-02T03:32:10;98136.16;;;3.89;100.00
27334;BME280;14817;57.104;-2.094;2024-03-02T03:34:37;98132.69;;;3.89;100.00
27334;BME280;14817;57.104;-2.094;2024-03-02T03:37:04;98131.81;;;3.97;100.00
27334;BME280;14817;57.104;-2.094;2024-03-02T03:39:30;98127.69;;;3.94;100.00
27334;BME280;14817;57.104;-2.094;2024-03-02T03:41:57;98127.84;;;4.01;100.00
27334;BME280;14817;57.104;-2.094;2024-03-02T03:44:24;98117.13;;;3.86;100.00
27334;BME280;14817;57.104;-2.094;2024-03-02T03:46:51;98132.81;;;3.96;100.00
27334;BME280;14817;57.104;-2.094;2024-03-02T03:49:18;98130.84;;;3.81;100.00
27334;BME280;14817;57.104;-2.094;2024-03-02T03:51:45;98120.91;;;3.92;100.00
27334;BME280;14817;57.104;-2.094;2024-03-02T03:54:12;98117.13;;;3.86;100.00
27334;BME280;14817;57.104;-2.094;2024-03-02T03:56:38;98125.25;;;3.76;100.00
27334;BME280;14817;57.104;-2.094;2024-03-02T03:59:05;98112.31;;;3.89;100.00
27334;BME280;14817;57.104;-2.094;2024-03-02T04:01:32;98120.78;;;3.85;100.00
27334;BME280;14817;57.104;-2.094;2024-03-02T04:04:00;98118.50;;;3.74;100.00
27334;BME280;14817;57.104;-2.094;2024-03-02T04:06:29;98114.97;;;3.81;100.00
27334;BME280;14817;57.104;-2.094;2024-03-02T04:08:55;98119.31;;;3.74;100.00
27334;BME280;14817;57.104;-2.094;2024-03-02T04:11:23;98112.69;;;3.78;100.00
27334;BME280;14817;57.104;-2.094;2024-03-02T04:13:50;98111.38;;;3.74;100.00
27334;BME280;14817;57.104;-2.094;2024-03-02T04:16:17;98117.63;;;3.73;100.00
27334;BME280;14817;57.104;-2.094;2024-03-02T04:18:43;98116.97;;;3.79;100.00
27334;BME280;14817;57.104;-2.094;2024-03-02T04:21:10;98125.91;;;3.78;100.00
27334;BME280;14817;57.104;-2.094;2024-03-02T04:23:38;98124.59;;;3.82;100.00
27334;BME280;14817;57.104;-2.094;2024-03-02T04:26:05;98127.41;;;3.81;100.00
27334;BME280;14817;57.104;-2.094;2024-03-02T04:28:32;98131.88;;;3.72;100.00
27334;BME280;14817;57.104;-2.094;2024-03-02T04:30:59;98135.50;;;3.79;100.00
27334;BME280;14817;57.104;-2.094;2024-03-02T04:33:26;98126.44;;;3.74;100.00
27334;BME280;14817;57.104;-2.094;2024-03-02T04:35:53;98122.78;;;3.75;100.00
27334;BME280;14817;57.104;-2.094;2024-03-02T04:38:20;98129.59;;;3.61;100.00
27334;BME280;14817;57.104;-2.094;2024-03-02T04:40:47;98126.59;;;3.72;100.00
27334;BME280;14817;57.104;-2.094;2024-03-02T04:43:14;98135.03;;;3.67;100.00
27334;BME280;14817;57.104;-2.094;2024-03-02T04:45:43;98139.50;;;3.51;100.00
27334;BME280;14817;57.104;-2.094;2024-03-02T04:48:10;98140.19;;;3.53;100.00
27334;BME280;14817;57.104;-2.094;2024-03-02T04:50:36;98141.16;;;3.68;100.00
27334;BME280;14817;57.104;-2.094;2024-03-02T04:53:03;98144.31;;;3.63;100.00
27334;BME280;14817;57.104;-2.094;2024-03-02T04:55:30;98146.78;;;3.65;100.00
27334;BME280;14817;57.104;-2.094;2024-03-02T04:58:06;98144.81;;;3.67;100.00
27334;BME280;14817;57.104;-2.094;2024-03-02T05:00:34;98146.94;;;3.63;100.00
27334;BME280;14817;57.104;-2.094;2024-03-02T05:03:02;98139.16;;;3.70;100.00
27334;BME280;14817;57.104;-2.094;2024-03-02T05:05:29;98141.50;;;3.65;100.00
27334;BME280;14817;57.104;-2.094;2024-03-02T05:07:57;98137.69;;;3.67;100.00
27334;BME280;14817;57.104;-2.094;2024-03-02T05:10:24;98130.25;;;3.63;100.00
27334;BME280;14817;57.104;-2.094;2024-03-02T05:12:51;98140.84;;;3.55;100.00
27334;BME280;14817;57.104;-2.094;2024-03-02T05:15:26;98140.34;;;3.51;100.00
27334;BME280;14817;57.104;-2.094;2024-03-02T05:17:54;98137.03;;;3.57;100.00
27334;BME280;14817;57.104;-2.094;2024-03-02T05:20:21;98142.81;;;3.53;100.00
27334;BME280;14817;57.104;-2.094;2024-03-02T05:22:48;98138.84;;;3.57;100.00
27334;BME280;14817;57.104;-2.094;2024-03-02T05:25:16;98132.22;;;3.53;100.00
27334;BME280;14817;57.104;-2.094;2024-03-02T05:27:43;98126.94;;;3.53;100.00
27334;BME280;14817;57.104;-2.094;2024-03-02T05:30:10;98137.84;;;3.50;100.00
27334;BME280;14817;57.104;-2.094;2024-03-02T05:32:37;98127.91;;;3.52;100.00
27334;BME280;14817;57.104;-2.094;2024-03-02T05:35:05;98125.78;;;3.55;100.00
27334;BME280;14817;57.104;-2.094;2024-03-02T05:37:32;98128.59;;;3.45;100.00
27334;BME280;14817;57.104;-2.094;2024-03-02T05:39:58;98132.41;;;3.43;100.00
27334;BME280;14817;57.104;-2.094;2024-03-02T05:42:26;98132.22;;;3.53;100.00
27334;BME280;14817;57.104;-2.094;2024-03-02T05:44:54;98137.84;;;3.50;100.00
27334;BME280;14817;57.104;-2.094;2024-03-02T05:47:21;98125.47;;;3.50;100.00
27334;BME280;14817;57.104;-2.094;2024-03-02T05:49:48;98121.34;;;3.39;100.00
27334;BME280;14817;57.104;-2.094;2024-03-02T05:52:15;98120.84;;;3.44;100.00
27334;BME280;14817;57.104;-2.094;2024-03-02T05:54:41;98120.00;;;3.35;100.00
27334;BME280;14817;57.104;-2.094;2024-03-02T05:57:08;98121.34;;;3.31;100.00
27334;BME280;14817;57.104;-2.094;2024-03-02T05:59:58;98122.81;;;3.34;100.00
27334;BME280;14817;57.104;-2.094;2024-03-02T06:02:25;98125.63;;;3.32;100.00
27334;BME280;14817;57.104;-2.094;2024-03-02T06:04:54;98132.75;;;3.40;100.00
27334;BME280;14817;57.104;-2.094;2024-03-02T06:07:21;98137.03;;;3.41;100.00
27334;BME280;14817;57.104;-2.094;2024-03-02T06:09:48;98141.81;;;3.45;100.00
27334;BME280;14817;57.104;-2.094;2024-03-02T06:12:18;98141.66;;;3.47;100.00
27334;BME280;14817;57.104;-2.094;2024-03-02T06:14:45;98142.16;;;3.42;100.00
27334;BME280;14817;57.104;-2.094;2024-03-02T06:17:12;98138.69;;;3.42;100.00
27334;BME280;14817;57.104;-2.094;2024-03-02T06:19:39;98139.84;;;3.39;100.00
27334;BME280;14817;57.104;-2.094;2024-03-02T06:22:06;98137.22;;;3.39;100.00
27334;BME280;14817;57.104;-2.094;2024-03-02T06:24:33;98144.97;;;3.41;100.00
27334;BME280;14817;57.104;-2.094;2024-03-02T06:27:00;98141.19;;;3.35;100.00
27334;BME280;14817;57.104;-2.094;2024-03-02T06:29:26;98141.50;;;3.40;100.00
27334;BME280;14817;57.104;-2.094;2024-03-02T06:31:53;98135.38;;;3.40;100.00
27334;BME280;14817;57.104;-2.094;2024-03-02T06:34:20;98136.72;;;3.52;100.00
27334;BME280;14817;57.104;-2.094;2024-03-02T06:36:47;98135.53;;;3.46;100.00
27334;BME280;14817;57.104;-2.094;2024-03-02T06:39:14;98132.06;;;3.46;100.00
27334;BME280;14817;57.104;-2.094;2024-03-02T06:41:41;98131.06;;;3.47;100.00
27334;BME280;14817;57.104;-2.094;2024-03-02T06:44:11;98128.94;;;3.51;100.00
27334;BME280;14817;57.104;-2.094;2024-03-02T06:46:37;98133.06;;;3.53;100.00
27334;BME280;14817;57.104;-2.094;2024-03-02T06:49:04;98127.75;;;3.45;100.00
27334;BME280;14817;57.104;-2.094;2024-03-02T06:51:33;98125.28;;;3.60;100.00
27334;BME280;14817;57.104;-2.094;2024-03-02T06:54:00;98122.47;;;3.45;100.00
27334;BME280;14817;57.104;-2.094;2024-03-02T06:56:27;98129.59;;;3.44;100.00
27334;BME280;14817;57.104;-2.094;2024-03-02T06:58:54;98124.63;;;3.41;100.00
27334;BME280;14817;57.104;-2.094;2024-03-02T07:01:21;98129.25;;;3.47;100.00
27334;BME280;14817;57.104;-2.094;2024-03-02T07:03:51;98130.25;;;3.55;100.00
27334;BME280;14817;57.104;-2.094;2024-03-02T07:06:18;98133.22;;;3.43;100.00
27334;BME280;14817;57.104;-2.094;2024-03-02T07:08:45;98119.66;;;3.46;100.00
27334;BME280;14817;57.104;-2.094;2024-03-02T07:11:12;98123.63;;;3.42;100.00
27334;BME280;14817;57.104;-2.094;2024-03-02T07:13:39;98120.47;;;3.55;100.00
27334;BME280;14817;57.104;-2.094;2024-03-02T07:16:06;98121.31;;;3.56;100.00
27334;BME280;14817;57.104;-2.094;2024-03-02T07:18:53;98121.66;;;3.53;100.00
27334;BME280;14817;57.104;-2.094;2024-03-02T07:21:22;98118.19;;;3.52;100.00
27334;BME280;14817;57.104;-2.094;2024-03-02T07:23:49;98119.00;;;3.61;100.00
27334;BME280;14817;57.104;-2.094;2024-03-02T07:26:16;98125.94;;;3.62;100.00
27334;BME280;14817;57.104;-2.094;2024-03-02T07:28:48;98119.97;;;3.52;100.00
27334;BME280;14817;57.104;-2.094;2024-03-02T07:31:15;98122.31;;;3.63;100.00
27334;BME280;14817;57.104;-2.094;2024-03-02T07:33:45;98100.28;;;3.62;100.00
27334;BME280;14817;57.104;-2.094;2024-03-02T07:36:15;98096.81;;;3.70;100.00
27334;BME280;14817;57.104;-2.094;2024-03-02T07:38:43;98104.09;;;3.76;100.00
27334;BME280;14817;57.104;-2.094;2024-03-02T07:41:11;98095.63;;;3.73;100.00
27334;BME280;14817;57.104;-2.094;2024-03-02T07:43:38;98098.94;;;3.75;100.00
27334;BME280;14817;57.104;-2.094;2024-03-02T07:46:06;98101.94;;;3.80;100.00
27334;BME280;14817;57.104;-2.094;2024-03-02T07:48:33;98103.75;;;3.71;100.00
27334;BME280;14817;57.104;-2.094;2024-03-02T07:51:00;98095.16;;;3.69;100.00
27334;BME280;14817;57.104;-2.094;2024-03-02T07:53:29;98103.41;;;3.74;100.00
27334;BME280;14817;57.104;-2.094;2024-03-02T07:55:56;98094.81;;;3.80;100.00
27334;BME280;14817;57.104;-2.094;2024-03-02T07:58:29;98094.94;;;3.95;100.00
27334;BME280;14817;57.104;-2.094;2024-03-02T08:00:56;98085.81;;;3.98;100.00
27334;BME280;14817;57.104;-2.094;2024-03-02T08:03:23;98088.69;;;3.80;100.00
27334;BME280;14817;57.104;-2.094;2024-03-02T08:05:50;98091.78;;;3.92;100.00
27334;BME280;14817;57.104;-2.094;2024-03-02T08:08:17;98078.06;;;3.88;100.00
27334;BME280;14817;57.104;-2.094;2024-03-02T08:10:44;98082.81;;;4.01;100.00
27334;BME280;14817;57.104;-2.094;2024-03-02T08:13:11;98077.06;;;3.97;100.00
27334;BME280;14817;57.104;-2.094;2024-03-02T08:15:37;98066.47;;;3.97;100.00
27334;BME280;14817;57.104;-2.094;2024-03-02T08:18:04;98074.88;;;4.01;100.00
27334;BME280;14817;57.104;-2.094;2024-03-02T08:20:31;98077.38;;;3.94;100.00
27334;BME280;14817;57.104;-2.094;2024-03-02T08:22:58;98069.28;;;3.96;100.00
27334;BME280;14817;57.104;-2.094;2024-03-02T08:25:25;98076.72;;;3.92;100.00
27334;BME280;14817;57.104;-2.094;2024-03-02T08:27:52;98075.75;;;3.93;100.00
27334;BME280;14817;57.104;-2.094;2024-03-02T08:30:19;98082.69;;;3.94;100.00
27334;BME280;14817;57.104;-2.094;2024-03-02T08:32:46;98081.19;;;3.92;100.00
27334;BME280;14817;57.104;-2.094;2024-03-02T08:35:14;98084.66;;;4.00;100.00
27334;BME280;14817;57.104;-2.094;2024-03-02T08:37:41;98080.34;;;3.99;100.00
27334;BME280;14817;57.104;-2.094;2024-03-02T08:40:09;98078.91;;;3.88;100.00
27334;BME280;14817;57.104;-2.094;2024-03-02T08:42:39;98079.59;;;3.82;100.00
27334;BME280;14817;57.104;-2.094;2024-03-02T08:45:07;98085.19;;;3.79;100.00
27334;BME280;14817;57.104;-2.094;2024-03-02T08:47:34;98083.88;;;3.83;100.00
27334;BME280;14817;57.104;-2.094;2024-03-02T08:50:01;98083.06;;;3.75;100.00
27334;BME280;14817;57.104;-2.094;2024-03-02T08:52:28;98082.59;;;3.63;100.00
27334;BME280;14817;57.104;-2.094;2024-03-02T08:54:55;98084.91;;;3.66;100.00
27334;BME280;14817;57.104;-2.094;2024-03-02T08:57:22;98089.75;;;3.46;100.00
27334;BME280;14817;57.104;-2.094;2024-03-02T08:59:49;98081.31;;;3.51;100.00
27334;BME280;14817;57.104;-2.094;2024-03-02T09:02:16;98081.94;;;3.61;100.00
27334;BME280;14817;57.104;-2.094;2024-03-02T09:04:42;98089.03;;;3.60;100.00
27334;BME280;14817;57.104;-2.094;2024-03-02T09:07:09;98086.91;;;3.47;100.00
27334;BME280;14817;57.104;-2.094;2024-03-02T09:09:36;98086.91;;;3.56;100.00
27334;BME280;14817;57.104;-2.094;2024-03-02T09:12:06;98091.03;;;3.66;100.00
27334;BME280;14817;57.104;-2.094;2024-03-02T09:14:34;98086.25;;;3.54;100.00
27334;BME280;14817;57.104;-2.094;2024-03-02T09:17:02;98088.06;;;3.45;100.00
27334;BME280;14817;57.104;-2.094;2024-03-02T09:19:29;98088.44;;;3.42;100.00
27334;BME280;14817;57.104;-2.094;2024-03-02T09:21:56;98082.66;;;3.14;100.00
27334;BME280;14817;57.104;-2.094;2024-03-02T09:24:24;98082.97;;;3.02;100.00
27334;BME280;14817;57.104;-2.094;2024-03-02T09:26:51;98085.94;;;3.16;100.00
27334;BME280;14817;57.104;-2.094;2024-03-02T09:29:18;98086.13;;;3.22;100.00
27334;BME280;14817;57.104;-2.094;2024-03-02T09:31:47;98088.25;;;3.27;100.00
27334;BME280;14817;57.104;-2.094;2024-03-02T09:34:14;98093.41;;;3.20;100.00
27334;BME280;14817;57.104;-2.094;2024-03-02T09:36:42;98078.19;;;3.22;100.00
27334;BME280;14817;57.104;-2.094;2024-03-02T09:39:10;98086.94;;;3.31;100.00
27334;BME280;14817;57.104;-2.094;2024-03-02T09:41:37;98091.38;;;3.31;100.00
27334;BME280;14817;57.104;-2.094;2024-03-02T09:44:05;98090.25;;;3.33;100.00
27334;BME280;14817;57.104;-2.094;2024-03-02T09:46:32;98092.25;;;3.31;100.00
27334;BME280;14817;57.104;-2.094;2024-03-02T09:48:59;98085.28;;;3.30;100.00
27334;BME280;14817;57.104;-2.094;2024-03-02T09:51:27;98082.47;;;3.40;100.00
27334;BME280;14817;57.104;-2.094;2024-03-02T09:53:55;98086.25;;;3.45;100.00
27334;BME280;14817;57.104;-2.094;2024-03-02T09:56:31;98092.53;;;3.44;100.00
27334;BME280;14817;57.104;-2.094;2024-03-02T09:58:59;98090.88;;;3.52;100.00
27334;BME280;14817;57.104;-2.094;2024-03-02T10:01:26;98089.56;;;3.56;100.00
27334;BME280;14817;57.104;-2.094;2024-03-02T10:03:53;98092.69;;;3.59;100.00
27334;BME280;14817;57.104;-2.094;2024-03-02T10:06:25;98094.38;;;3.52;100.00
27334;BME280;14817;57.104;-2.094;2024-03-02T10:08:54;98086.91;;;3.64;100.00
27334;BME280;14817;57.104;-2.094;2024-03-02T10:11:28;98088.56;;;3.65;100.00
27334;BME280;14817;57.104;-2.094;2024-03-02T10:14:09;98093.16;;;3.71;100.00
27334;BME280;14817;57.104;-2.094;2024-03-02T10:16:38;98095.50;;;3.66;100.00
27334;BME280;14817;57.104;-2.094;2024-03-02T10:19:18;98097.47;;;3.72;100.00
27334;BME280;14817;57.104;-2.094;2024-03-02T10:21:50;98089.84;;;3.69;100.00
27334;BME280;14817;57.104;-2.094;2024-03-02T10:24:18;98095.13;;;3.77;100.00
27334;BME280;14817;57.104;-2.094;2024-03-02T10:26:45;98092.16;;;3.80;100.00
27334;BME280;14817;57.104;-2.094;2024-03-02T10:29:12;98095.50;;;3.66;100.00
27334;BME280;14817;57.104;-2.094;2024-03-02T10:31:41;98088.50;;;3.81;100.00
27334;BME280;14817;57.104;-2.094;2024-03-02T10:34:09;98094.09;;;3.95;100.00
27334;BME280;14817;57.104;-2.094;2024-03-02T10:36:37;98094.59;;;3.98;100.00
27334;BME280;14817;57.104;-2.094;2024-03-02T10:39:05;98097.72;;;4.02;100.00
27334;BME280;14817;57.104;-2.094;2024-03-02T10:41:33;98099.06;;;3.98;100.00
27334;BME280;14817;57.104;-2.094;2024-03-02T10:44:08;98097.25;;;3.82;100.00
27334;BME280;14817;57.104;-2.094;2024-03-02T10:46:37;98097.09;;;3.83;100.00
27334;BME280;14817;57.104;-2.094;2024-03-02T10:49:05;98099.06;;;3.98;100.00
27334;BME280;14817;57.104;-2.094;2024-03-02T10:51:35;98103.31;;;4.07;100.00
27334;BME280;14817;57.104;-2.094;2024-03-02T10:54:04;98108.59;;;4.15;100.00
27334;BME280;14817;57.104;-2.094;2024-03-02T10:56:38;98101.69;;;4.06;100.00
27334;BME280;14817;57.104;-2.094;2024-03-02T11:01:38;98115.22;;;4.19;100.00
27334;BME280;14817;57.104;-2.094;2024-03-02T11:04:09;98108.22;;;4.26;100.00
27334;BME280;14817;57.104;-2.094;2024-03-02T11:06:36;98110.81;;;4.43;100.00
27334;BME280;14817;57.104;-2.094;2024-03-02T11:09:07;98113.88;;;4.23;100.00
27334;BME280;14817;57.104;-2.094;2024-03-02T11:11:43;98111.25;;;4.15;100.00
27334;BME280;14817;57.104;-2.094;2024-03-02T11:14:12;98114.72;;;4.55;100.00
27334;BME280;14817;57.104;-2.094;2024-03-02T11:16:39;98118.38;;;4.54;100.00
27334;BME280;14817;57.104;-2.094;2024-03-02T11:19:11;98119.00;;;4.56;100.00
27334;BME280;14817;57.104;-2.094;2024-03-02T11:21:43;98124.19;;;4.49;100.00
27334;BME280;14817;57.104;-2.094;2024-03-02T11:26:51;98114.47;;;4.96;100.00
27334;BME280;14817;57.104;-2.094;2024-03-02T11:32:04;98084.66;;;4.94;100.00
27334;BME280;14817;57.104;-2.094;2024-03-02T11:34:35;98094.31;;;4.64;100.00
27334;BME280;14817;57.104;-2.094;2024-03-02T11:37:03;98090.88;;;4.55;100.00
27334;BME280;14817;57.104;-2.094;2024-03-02T11:39:30;98098.34;;;5.06;100.00
27334;BME280;14817;57.104;-2.094;2024-03-02T11:41:58;98102.03;;;4.97;100.00
27334;BME280;14817;57.104;-2.094;2024-03-02T11:44:26;98096.13;;;4.86;100.00
27334;BME280;14817;57.104;-2.094;2024-03-02T11:47:06;98102.41;;;4.62;100.00
27334;BME280;14817;57.104;-2.094;2024-03-02T11:49:45;98117.19;;;4.88;100.00
27334;BME280;14817;57.104;-2.094;2024-03-02T11:52:13;98116.91;;;5.06;100.00
27334;BME280;14817;57.104;-2.094;2024-03-02T11:54:43;98124.75;;;5.22;100.00
27334;BME280;14817;57.104;-2.094;2024-03-02T11:57:15;98120.50;;;5.36;100.00
27334;BME280;14817;57.104;-2.094;2024-03-02T11:59:43;98095.50;;;5.07;100.00
27334;BME280;14817;57.104;-2.094;2024-03-02T12:02:18;98107.41;;;4.65;100.00
27334;BME280;14817;57.104;-2.094;2024-03-02T12:04:46;98105.63;;;4.81;100.00
27334;BME280;14817;57.104;-2.094;2024-03-02T12:07:21;98109.97;;;4.74;100.00
27334;BME280;14817;57.104;-2.094;2024-03-02T12:09:59;98115.78;;;5.00;100.00
27334;BME280;14817;57.104;-2.094;2024-03-02T12:12:26;98120.91;;;4.79;100.00
27334;BME280;14817;57.104;-2.094;2024-03-02T12:14:53;98122.84;;;4.85;100.00
27334;BME280;14817;57.104;-2.094;2024-03-02T12:17:22;98123.50;;;4.87;100.00
27334;BME280;14817;57.104;-2.094;2024-03-02T12:19:49;98124.97;;;4.89;100.00
27334;BME280;14817;57.104;-2.094;2024-03-02T12:22:16;98127.50;;;4.83;100.00
27334;BME280;14817;57.104;-2.094;2024-03-02T12:24:44;98132.97;;;4.81;100.00
27334;BME280;14817;57.104;-2.094;2024-03-02T12:27:15;98140.06;;;4.89;100.00
27334;BME280;14817;57.104;-2.094;2024-03-02T12:29:42;98146.06;;;4.83;100.00
27334;BME280;14817;57.104;-2.094;2024-03-02T12:32:09;98141.00;;;4.96;100.00
27334;BME280;14817;57.104;-2.094;2024-03-02T12:34:38;98151.09;;;5.24;100.00
27334;BME280;14817;57.104;-2.094;2024-03-02T12:37:05;98150.63;;;5.20;100.00
27334;BME280;14817;57.104;-2.094;2024-03-02T12:39:32;98153.44;;;5.42;100.00
27334;BME280;14817;57.104;-2.094;2024-03-02T12:42:00;98161.13;;;5.60;100.00
27334;BME280;14817;57.104;-2.094;2024-03-02T12:44:29;98158.59;;;5.81;100.00
27334;BME280;14817;57.104;-2.094;2024-03-02T12:46:56;98149.97;;;6.17;100.00
27334;BME280;14817;57.104;-2.094;2024-03-02T12:49:26;98160.94;;;6.14;100.00
27334;BME280;14817;57.104;-2.094;2024-03-02T12:51:55;98165.09;;;6.02;100.00
27334;BME280;14817;57.104;-2.094;2024-03-02T12:54:26;98164.09;;;6.18;100.00
27334;BME280;14817;57.104;-2.094;2024-03-02T12:56:54;98164.72;;;6.34;100.00
27334;BME280;14817;57.104;-2.094;2024-03-02T12:59:23;98154.97;;;6.71;100.00
27334;BME280;14817;57.104;-2.094;2024-03-02T13:01:54;98167.53;;;6.63;100.00
27334;BME280;14817;57.104;-2.094;2024-03-02T13:04:25;98172.53;;;6.51;100.00
27334;BME280;14817;57.104;-2.094;2024-03-02T13:06:52;98187.19;;;6.47;100.00
27334;BME280;14817;57.104;-2.094;2024-03-02T13:09:20;98191.31;;;6.34;100.00
27334;BME280;14817;57.104;-2.094;2024-03-02T13:11:47;98193.59;;;6.38;100.00